createdAt,value
2022-08-05T00:02:19.779Z,9.9
2022-08-05T00:08:40.242Z,14.3
2022-08-05T00:14:36.345Z,11.1
2022-08-05T00:20:34.235Z,11.2
2022-08-05T00:26:36.591Z,10.9
2022-08-05T00:32:30.555Z,10.1
2022-08-05T00:38:37.121Z,11.7
2022-08-05T00:44:38.996Z,9.2
2022-08-05T00:50:31.290Z,11.3
2022-08-05T00:56:29.212Z,11.2
2022-08-05T01:02:27.638Z,12.1
2022-08-05T01:08:49.080Z,11.3
2022-08-05T01:14:42.010Z,9.7
2022-08-05T01:20:33.935Z,12.4
2022-08-05T01:26:31.983Z,10.4
2022-08-05T01:32:23.675Z,12.5
2022-08-05T01:38:33.159Z,11.7
2022-08-05T01:44:37.154Z,13.6
2022-08-05T01:50:33.968Z,11
2022-08-05T01:58:48.894Z,12.2
2022-08-05T02:04:42.147Z,12
2022-08-05T02:10:39.386Z,9.6
2022-08-05T02:16:33.551Z,13.1
2022-08-05T02:22:30.783Z,10.7
2022-08-05T02:28:41.603Z,13.6
2022-08-05T02:34:35.927Z,13.2
2022-08-05T02:40:32.308Z,13.7
2022-08-05T02:46:32.879Z,10.9
2022-08-05T02:52:43.798Z,14.2
2022-08-05T02:58:36.697Z,10.7
2022-08-05T03:04:40.276Z,11.2
2022-08-05T03:10:31.678Z,13.2
2022-08-05T03:16:24.261Z,13.4
2022-08-05T03:22:34.325Z,13.7
2022-08-05T03:28:25.126Z,15.8
2022-08-05T03:34:18.271Z,15.1
2022-08-05T03:40:33.810Z,17.4
2022-08-05T03:46:43.117Z,17.4
2022-08-05T03:56:12.332Z,21.3
2022-08-05T04:03:00.065Z,17.1
2022-08-05T04:08:59.778Z,16.6
2022-08-05T04:15:05.575Z,16.7
2022-08-05T04:22:22.444Z,17.7
2022-08-05T04:28:32.309Z,17.4
2022-08-05T04:34:57.571Z,18.3
2022-08-05T04:40:57.761Z,18.6
2022-08-05T04:46:57.461Z,16.4
2022-08-05T04:53:05.927Z,18.5
2022-08-05T04:59:40.665Z,19.3
2022-08-05T05:06:52.058Z,19.5
2022-08-05T05:12:47.772Z,18.4
2022-08-05T05:19:23.517Z,19.1
2022-08-05T05:25:49.435Z,16.3
2022-08-05T05:38:09.027Z,17.8
2022-08-05T05:44:43.051Z,20.3
2022-08-05T05:50:45.900Z,19
2022-08-05T05:56:39.815Z,19
2022-08-05T06:02:50.436Z,15.4
2022-08-05T06:08:53.075Z,19.2
2022-08-05T06:14:49.713Z,18.7
2022-08-05T06:20:57.455Z,16.5
2022-08-05T06:27:00.786Z,18.3
2022-08-05T06:32:55.455Z,21.9
2022-08-05T06:38:52.950Z,26
2022-08-05T06:44:52.822Z,25.8
2022-08-05T06:50:53.408Z,25.1
2022-08-05T06:58:30.313Z,24.1
2022-08-05T07:04:27.530Z,25
2022-08-05T07:10:23.013Z,25.5
2022-08-05T07:18:27.391Z,22.4
2022-08-05T07:24:23.032Z,27.5
2022-08-05T07:30:40.180Z,35.1
2022-08-05T07:36:37.047Z,37.4
2022-08-05T07:42:42.291Z,48.8
2022-08-05T07:49:19.174Z,53.3
2022-08-05T07:57:14.895Z,44.7
2022-08-05T09:26:15.990Z,40.9
2022-08-05T09:32:52.841Z,36.8
2022-08-05T09:39:01.083Z,32.8
2022-08-05T09:46:13.698Z,36.2
2022-08-05T09:54:01.750Z,37.6
2022-08-05T09:59:54.208Z,46.3
2022-08-05T10:05:43.684Z,47.2
2022-08-05T10:11:40.998Z,58.1
2022-08-05T10:17:58.273Z,59.3
2022-08-05T10:24:15.101Z,60.8
2022-08-05T10:33:14.846Z,55.4
2022-08-05T10:39:15.101Z,69.3
2022-08-05T10:46:07.792Z,81.6
2022-08-05T10:52:12.244Z,86.2
2022-08-05T10:58:03.057Z,79.6
2022-08-05T11:03:53.933Z,72.8
2022-08-05T11:10:10.163Z,65.4
2022-08-05T11:16:06.301Z,50.2
2022-08-05T11:22:02.481Z,37.9
2022-08-05T11:28:06.041Z,31.2
2022-08-05T11:34:00.148Z,23.9
2022-08-05T11:40:08.109Z,13.4
2022-08-05T11:46:58.888Z,15.9
2022-08-05T11:53:17.065Z,15.7
2022-08-05T11:59:22.683Z,12.1
2022-08-05T12:05:45.336Z,9.3
2022-08-05T12:11:52.503Z,10.8
2022-08-05T12:18:14.653Z,10.4
2022-08-05T12:24:10.583Z,9.1
2022-08-05T12:30:10.285Z,7.7
2022-08-05T12:36:09.786Z,9
2022-08-05T12:42:02.797Z,11.3
2022-08-05T12:48:36.944Z,10.6
2022-08-05T12:54:30.252Z,8.5
2022-08-05T13:02:13.458Z,10.5
2022-08-05T13:08:10.524Z,10.3
2022-08-05T13:14:19.312Z,10.9
2022-08-05T13:20:24.124Z,10.6
2022-08-05T13:26:31.596Z,8.7
2022-08-05T13:32:50.502Z,10.5
2022-08-05T13:38:57.091Z,8
2022-08-05T13:44:50.551Z,7.8
2022-08-05T13:50:41.842Z,7.4
2022-08-05T13:56:35.330Z,7.3
2022-08-05T14:02:43.422Z,5.2
2022-08-05T14:08:43.579Z,5.5
2022-08-05T14:14:38.615Z,7.6
2022-08-05T14:20:34.020Z,6.6
2022-08-05T14:27:21.192Z,7.8
2022-08-05T14:33:27.679Z,5.9
2022-08-05T14:40:01.072Z,8.5
2022-08-05T14:45:52.040Z,7.3
2022-08-05T14:51:48.531Z,8.6
2022-08-05T14:58:01.678Z,10.1
2022-08-05T15:04:04.505Z,6.9
2022-08-05T15:10:03.179Z,7.9
2022-08-05T15:16:00.725Z,9.1
2022-08-05T15:21:51.516Z,9.1
2022-08-05T15:27:58.344Z,8.5
2022-08-05T15:34:36.744Z,9.4
2022-08-05T15:41:59.394Z,9.5
2022-08-05T15:48:36.610Z,10.8
2022-08-05T15:54:44.702Z,9.6
2022-08-05T16:01:20.133Z,7.4
2022-08-05T16:07:19.630Z,10
2022-08-05T16:13:38.501Z,5.8
2022-08-05T16:20:15.376Z,5.6
2022-08-05T16:26:09.121Z,7.5
2022-08-05T16:32:02.629Z,6.8
2022-08-05T16:38:34.746Z,6.2
2022-08-05T16:44:32.459Z,5.7
2022-08-05T16:50:22.272Z,6.5
2022-08-05T16:56:16.946Z,5.6
2022-08-05T17:02:07.273Z,7.4
2022-08-05T17:08:00.971Z,6.5
2022-08-05T17:14:07.024Z,6.1
2022-08-05T17:20:21.341Z,4.8
2022-08-05T17:26:19.712Z,6.6
2022-08-05T17:32:21.369Z,7
2022-08-05T17:38:21.462Z,8.1
2022-08-05T17:44:32.410Z,8.6
2022-08-05T17:50:34.490Z,5.8
2022-08-05T17:56:34.029Z,6.1
2022-08-05T18:02:28.791Z,5
2022-08-05T18:08:24.341Z,5
2022-08-05T18:14:24.060Z,4.6
2022-08-05T18:20:29.045Z,4.1
2022-08-05T18:26:34.513Z,4.7
2022-08-05T18:32:42.890Z,5
2022-08-05T18:38:51.500Z,3.7
2022-08-05T18:45:02.109Z,5.4
2022-08-05T18:52:03.408Z,3.5
2022-08-05T18:58:18.555Z,3.1
2022-08-05T19:04:27.404Z,3.6
2022-08-05T19:10:17.171Z,5.3
2022-08-05T19:16:49.972Z,4.3
2022-08-05T19:22:44.834Z,3.2
2022-08-05T19:28:43.617Z,2.3
2022-08-05T19:34:34.916Z,3.8
2022-08-05T19:40:32.029Z,4.4
2022-08-05T19:46:41.124Z,4.3
2022-08-05T19:52:37.444Z,3.6
2022-08-05T19:58:55.987Z,2.6
2022-08-05T20:05:58.425Z,2.7
2022-08-05T20:12:16.755Z,2.5
2022-08-05T20:18:38.562Z,3.1
2022-08-05T20:24:29.244Z,2.6
2022-08-05T20:30:29.511Z,4.1
2022-08-05T20:36:22.505Z,4.1
2022-08-05T20:42:23.316Z,5.3
2022-08-05T20:48:21.963Z,3.1
2022-08-05T20:54:19.901Z,3.5
2022-08-05T21:00:56.818Z,4
2022-08-05T21:06:54.400Z,4
2022-08-05T21:13:57.202Z,4.7
2022-08-05T21:19:53.692Z,3.7
2022-08-05T21:25:51.377Z,5.3
2022-08-05T21:31:47.266Z,2.7
2022-08-05T21:37:55.657Z,5
2022-08-05T21:44:05.871Z,4.1
2022-08-05T21:50:09.216Z,2.5
2022-08-05T21:56:21.993Z,4.1
2022-08-05T22:02:15.602Z,5.1
2022-08-05T22:08:29.587Z,3.8
2022-08-05T22:14:49.344Z,3.7
2022-08-05T22:20:45.629Z,4
2022-08-05T22:26:42.270Z,3.9
2022-08-05T22:32:49.816Z,4.4
2022-08-05T22:38:55.286Z,3.8
2022-08-05T22:45:07.453Z,4
2022-08-05T22:52:02.804Z,5.9
2022-08-05T22:58:32.119Z,3.4
2022-08-05T23:04:38.562Z,3.9
2022-08-05T23:10:54.698Z,5.7
2022-08-05T23:17:05.763Z,4.9
2022-08-05T23:23:16.008Z,4
2022-08-05T23:29:21.042Z,5.3
2022-08-05T23:35:14.391Z,4.1
2022-08-05T23:41:07.449Z,4.6
2022-08-05T23:47:00.571Z,4.4
2022-08-05T23:53:24.125Z,6.8
